sensor_id;sensor_type;location;lat;lon;timestamp;pressure;altitude;pressure_sealevel;temperature;humidity
41800;BME280;27468;47.460;19.034;2023-04-20T00:01:51;100325.97;;;9.28;77.80
41800;BME280;27468;47.460;19.034;2023-04-20T00:04:17;100319.78;;;9.31;77.57
41800;BME280;27468;47.460;19.034;2023-04-20T00:06:43;100321.59;;;9.26;77.89
41800;BME280;27468;47.460;19.034;2023-04-20T00:09:11;100209.50;;;8.65;77.56
41800;BME280;27468;47.460;19.034;2023-04-20T00:11:37;100265.91;;;9.01;76.94
41800;BME280;27468;47.460;19.034;2023-04-20T00:14:02;100317.19;;;9.28;77.10
41800;BME280;27468;47.460;19.034;2023-04-20T00:16:28;100319.97;;;9.20;77.19
41800;BME280;27468;47.460;19.034;2023-04-20T00:18:54;100320.03;;;9.16;78.24
41800;BME280;27468;47.460;19.034;2023-04-20T00:21:20;100320.03;;;9.16;78.33
41800;BME280;27468;47.460;19.034;2023-04-20T00:23:49;100322.66;;;9.17;78.32
41800;BME280;27468;47.460;19.034;2023-04-20T00:26:15;100309.59;;;9.10;78.02
41800;BME280;27468;47.460;19.034;2023-04-20T00:28:41;100313.88;;;9.17;78.25
41800;BME280;27468;47.460;19.034;2023-04-20T00:31:07;100307.78;;;9.15;78.55
41800;BME280;27468;47.460;19.034;2023-04-20T00:33:32;100308.72;;;9.11;78.88
41800;BME280;27468;47.460;19.034;2023-04-20T00:35:58;100305.13;;;9.16;78.53
41800;BME280;27468;47.460;19.034;2023-04-20T00:38:23;100270.31;;;8.99;78.26
41800;BME280;27468;47.460;19.034;2023-04-20T00:40:49;100253.00;;;8.86;78.92
41800;BME280;27468;47.460;19.034;2023-04-20T00:43:18;100300.00;;;9.07;79.34
41800;BME280;27468;47.460;19.034;2023-04-20T00:45:44;100286.03;;;9.04;79.46
41800;BME280;27468;47.460;19.034;2023-04-20T00:48:10;100303.50;;;9.08;79.11
41800;BME280;27468;47.460;19.034;2023-04-20T00:50:37;100293.84;;;9.08;78.71
41800;BME280;27468;47.460;19.034;2023-04-20T00:53:03;100313.91;;;9.15;78.71
41800;BME280;27468;47.460;19.034;2023-04-20T00:55:30;100273.03;;;8.94;78.93
41800;BME280;27468;47.460;19.034;2023-04-20T00:57:56;100229.66;;;8.65;79.20
41800;BME280;27468;47.460;19.034;2023-04-20T01:00:22;100251.41;;;8.73;79.74
41800;BME280;27468;47.460;19.034;2023-04-20T01:02:48;100305.41;;;8.97;79.97
41800;BME280;27468;47.460;19.034;2023-04-20T01:05:13;100242.72;;;8.68;79.38
41800;BME280;27468;47.460;19.034;2023-04-20T01:07:39;100281.94;;;8.83;80.38
41800;BME280;27468;47.460;19.034;2023-04-20T01:10:08;100235.91;;;8.56;80.98
41800;BME280;27468;47.460;19.034;2023-04-20T01:12:34;100244.72;;;8.53;80.80
41800;BME280;27468;47.460;19.034;2023-04-20T01:15:00;100302.09;;;8.84;80.84
41800;BME280;27468;47.460;19.034;2023-04-20T01:17:26;100240.38;;;8.49;81.20
41800;BME280;27468;47.460;19.034;2023-04-20T01:19:52;100272.50;;;8.70;80.96
41800;BME280;27468;47.460;19.034;2023-04-20T01:22:18;100293.41;;;8.79;81.05
41800;BME280;27468;47.460;19.034;2023-04-20T01:24:45;100297.88;;;8.72;81.80
41800;BME280;27468;47.460;19.034;2023-04-20T01:27:11;100242.25;;;8.40;81.80
41800;BME280;27468;47.460;19.034;2023-04-20T01:29:38;100250.03;;;8.49;81.31
41800;BME280;27468;47.460;19.034;2023-04-20T01:32:03;100299.66;;;8.69;81.97
41800;BME280;27468;47.460;19.034;2023-04-20T01:34:29;100248.47;;;8.34;81.50
41800;BME280;27468;47.460;19.034;2023-04-20T01:36:54;100238.09;;;8.20;82.90
41800;BME280;27468;47.460;19.034;2023-04-20T01:39:20;100311.28;;;8.52;82.71
41800;BME280;27468;47.460;19.034;2023-04-20T01:41:45;100299.91;;;8.53;82.74
41800;BME280;27468;47.460;19.034;2023-04-20T01:44:11;100279.91;;;8.42;82.94
41800;BME280;27468;47.460;19.034;2023-04-20T01:46:37;100285.16;;;8.40;83.04
41800;BME280;27468;47.460;19.034;2023-04-20T01:49:06;100289.47;;;8.47;82.58
41800;BME280;27468;47.460;19.034;2023-04-20T01:51:33;100257.28;;;8.25;82.68
41800;BME280;27468;47.460;19.034;2023-04-20T01:53:59;100294.75;;;8.44;83.34
41800;BME280;27468;47.460;19.034;2023-04-20T01:56:24;100271.25;;;8.29;83.48
41800;BME280;27468;47.460;19.034;2023-04-20T01:58:50;100305.34;;;8.38;83.57
41800;BME280;27468;47.460;19.034;2023-04-20T02:01:16;100291.38;;;8.35;83.59
41800;BME280;27468;47.460;19.034;2023-04-20T02:03:41;100239.28;;;7.98;83.59
41800;BME280;27468;47.460;19.034;2023-04-20T02:06:06;100294.09;;;8.22;83.55
41800;BME280;27468;47.460;19.034;2023-04-20T02:08:32;100262.75;;;8.09;83.59
41800;BME280;27468;47.460;19.034;2023-04-20T02:10:58;100282.78;;;8.17;83.79
41800;BME280;27468;47.460;19.034;2023-04-20T02:13:23;100290.59;;;8.23;83.35
41800;BME280;27468;47.460;19.034;2023-04-20T02:15:49;100304.53;;;8.30;83.78
41800;BME280;27468;47.460;19.034;2023-04-20T02:18:14;100304.59;;;8.24;84.22
41800;BME280;27468;47.460;19.034;2023-04-20T02:20:43;100302.00;;;8.21;84.62
41800;BME280;27468;47.460;19.034;2023-04-20T02:23:09;100277.75;;;8.01;84.54
41800;BME280;27468;47.460;19.034;2023-04-20T02:25:35;100261.13;;;7.99;84.63
41800;BME280;27468;47.460;19.034;2023-04-20T02:28:00;100295.94;;;8.14;84.43
41800;BME280;27468;47.460;19.034;2023-04-20T02:30:26;100249.88;;;7.89;84.50
41800;BME280;27468;47.460;19.034;2023-04-20T02:32:51;100255.09;;;7.90;84.62
41800;BME280;27468;47.460;19.034;2023-04-20T02:35:17;100300.34;;;8.12;85.18
41800;BME280;27468;47.460;19.034;2023-04-20T02:37:46;100299.50;;;8.10;85.32
41800;BME280;27468;47.460;19.034;2023-04-20T02:40:12;100296.94;;;8.06;85.49
41800;BME280;27468;47.460;19.034;2023-04-20T02:42:38;100290.91;;;7.98;85.34
41800;BME280;27468;47.460;19.034;2023-04-20T02:45:04;100305.66;;;8.08;85.12
41800;BME280;27468;47.460;19.034;2023-04-20T02:47:29;100303.00;;;8.09;84.88
41800;BME280;27468;47.460;19.034;2023-04-20T02:49:55;100281.34;;;7.90;85.23
41800;BME280;27468;47.460;19.034;2023-04-20T02:52:20;100244.00;;;7.64;85.14
41800;BME280;27468;47.460;19.034;2023-04-20T02:54:46;100290.16;;;7.85;85.37
41800;BME280;27468;47.460;19.034;2023-04-20T02:57:11;100301.44;;;7.93;85.64
41800;BME280;27468;47.460;19.034;2023-04-20T02:59:37;100320.59;;;8.04;85.20
41800;BME280;27468;47.460;19.034;2023-04-20T03:02:03;100293.63;;;7.87;85.27
41800;BME280;27468;47.460;19.034;2023-04-20T03:04:28;100319.66;;;8.08;85.28
41800;BME280;27468;47.460;19.034;2023-04-20T03:06:55;100263.09;;;7.78;84.70
41800;BME280;27468;47.460;19.034;2023-04-20T03:09:21;100324.09;;;8.03;85.28
41800;BME280;27468;47.460;19.034;2023-04-20T03:11:47;100325.03;;;7.98;85.46
41800;BME280;27468;47.460;19.034;2023-04-20T03:14:12;100318.88;;;8.02;85.28
41800;BME280;27468;47.460;19.034;2023-04-20T03:16:38;100317.97;;;8.03;85.30
41800;BME280;27468;47.460;19.034;2023-04-20T03:19:03;100303.22;;;7.91;85.58
41800;BME280;27468;47.460;19.034;2023-04-20T03:21:28;100311.00;;;8.00;85.21
41800;BME280;27468;47.460;19.034;2023-04-20T03:23:54;100324.16;;;7.99;85.61
41800;BME280;27468;47.460;19.034;2023-04-20T03:26:19;100298.81;;;7.94;85.08
41800;BME280;27468;47.460;19.034;2023-04-20T03:28:45;100306.59;;;8.04;84.90
41800;BME280;27468;47.460;19.034;2023-04-20T03:31:10;100297.03;;;7.98;85.06
41800;BME280;27468;47.460;19.034;2023-04-20T03:33:36;100287.44;;;7.94;85.01
41800;BME280;27468;47.460;19.034;2023-04-20T03:36:01;100313.56;;;8.08;85.10
41800;BME280;27468;47.460;19.034;2023-04-20T03:38:29;100317.03;;;8.08;85.06
41800;BME280;27468;47.460;19.034;2023-04-20T03:40:55;100306.44;;;8.14;84.93
41800;BME280;27468;47.460;19.034;2023-04-20T03:43:20;100288.22;;;8.04;84.84
41800;BME280;27468;47.460;19.034;2023-04-20T03:45:46;100307.31;;;8.15;85.34
41800;BME280;27468;47.460;19.034;2023-04-20T03:48:11;100305.53;;;8.18;84.66
41800;BME280;27468;47.460;19.034;2023-04-20T03:50:36;100331.66;;;8.34;84.81
41800;BME280;27468;47.460;19.034;2023-04-20T03:53:02;100271.53;;;8.08;84.86
41800;BME280;27468;47.460;19.034;2023-04-20T03:55:27;100340.28;;;8.45;84.81
41800;BME280;27468;47.460;19.034;2023-04-20T03:57:53;100328.84;;;8.50;84.78
41800;BME280;27468;47.460;19.034;2023-04-20T04:00:19;100292.13;;;8.43;84.54
41800;BME280;27468;47.460;19.034;2023-04-20T04:02:45;100312.97;;;8.58;84.51
41800;BME280;27468;47.460;19.034;2023-04-20T04:05:10;100289.47;;;8.47;84.43
41800;BME280;27468;47.460;19.034;2023-04-20T04:07:35;100264.13;;;8.42;84.27
41800;BME280;27468;47.460;19.034;2023-04-20T04:10:01;100325.75;;;8.84;83.96
41800;BME280;27468;47.460;19.034;2023-04-20T04:12:28;100324.00;;;8.84;83.84
41800;BME280;27468;47.460;19.034;2023-04-20T04:14:54;100333.44;;;8.99;83.53
41800;BME280;27468;47.460;19.034;2023-04-20T04:17:19;100333.31;;;9.07;83.04
41800;BME280;27468;47.460;19.034;2023-04-20T04:19:45;100331.53;;;9.09;82.77
41800;BME280;27468;47.460;19.034;2023-04-20T04:22:10;100330.53;;;9.17;82.46
41800;BME280;27468;47.460;19.034;2023-04-20T04:24:36;100277.50;;;8.86;81.94
41800;BME280;27468;47.460;19.034;2023-04-20T04:27:03;100332.44;;;9.06;81.59
41800;BME280;27468;47.460;19.034;2023-04-20T04:29:29;100343.47;;;9.30;81.55
41800;BME280;27468;47.460;19.034;2023-04-20T04:31:55;100336.84;;;9.61;81.44
41800;BME280;27468;47.460;19.034;2023-04-20T04:34:20;100326.03;;;9.78;79.49
41800;BME280;27468;47.460;19.034;2023-04-20T04:36:48;100288.44;;;9.70;78.42
41800;BME280;27468;47.460;19.034;2023-04-20T04:39:14;100304.13;;;9.76;76.63
41800;BME280;27468;47.460;19.034;2023-04-20T04:41:39;100320.72;;;9.81;76.87
41800;BME280;27468;47.460;19.034;2023-04-20T04:44:05;100277.25;;;9.57;76.32
41800;BME280;27468;47.460;19.034;2023-04-20T04:46:30;100326.88;;;9.80;76.51
41800;BME280;27468;47.460;19.034;2023-04-20T04:48:56;100279.22;;;9.44;76.50
41800;BME280;27468;47.460;19.034;2023-04-20T04:51:25;100315.03;;;9.54;76.46
41800;BME280;27468;47.460;19.034;2023-04-20T04:53:50;100341.13;;;9.68;76.67
41800;BME280;27468;47.460;19.034;2023-04-20T04:56:16;100336.94;;;9.55;76.69
41800;BME280;27468;47.460;19.034;2023-04-20T04:58:43;100338.59;;;9.62;76.87
41800;BME280;27468;47.460;19.034;2023-04-20T05:01:09;100340.31;;;9.65;76.70
41800;BME280;27468;47.460;19.034;2023-04-20T05:03:35;100309.81;;;9.51;76.88
41800;BME280;27468;47.460;19.034;2023-04-20T05:06:00;100329.78;;;9.65;76.38
41800;BME280;27468;47.460;19.034;2023-04-20T05:08:26;100334.94;;;9.71;76.42
41800;BME280;27468;47.460;19.034;2023-04-20T05:10:51;100347.84;;;9.84;76.37
41800;BME280;27468;47.460;19.034;2023-04-20T05:13:17;100320.94;;;9.67;76.42
41800;BME280;27468;47.460;19.034;2023-04-20T05:15:42;100346.16;;;9.82;76.16
41800;BME280;27468;47.460;19.034;2023-04-20T05:18:07;100295.63;;;9.60;76.06
41800;BME280;27468;47.460;19.034;2023-04-20T05:20:33;100331.97;;;9.89;75.88
41800;BME280;27468;47.460;19.034;2023-04-20T05:22:58;100352.72;;;10.06;75.65
41800;BME280;27468;47.460;19.034;2023-04-20T05:25:24;100337.09;;;9.97;75.46
41800;BME280;27468;47.460;19.034;2023-04-20T05:27:49;100298.69;;;9.83;75.68
41800;BME280;27468;47.460;19.034;2023-04-20T05:30:15;100354.25;;;10.20;76.02
41800;BME280;27468;47.460;19.034;2023-04-20T05:32:41;100295.88;;;9.94;75.76
41800;BME280;27468;47.460;19.034;2023-04-20T05:35:07;100322.72;;;10.14;75.91
41800;BME280;27468;47.460;19.034;2023-04-20T05:37:32;100323.47;;;10.22;75.59
41800;BME280;27468;47.460;19.034;2023-04-20T05:39:57;100313.81;;;10.23;75.51
41800;BME280;27468;47.460;19.034;2023-04-20T05:42:23;100339.75;;;10.43;75.32
41800;BME280;27468;47.460;19.034;2023-04-20T05:44:48;100321.41;;;10.38;75.26
41800;BME280;27468;47.460;19.034;2023-04-20T05:47:14;100340.22;;;10.63;75.03
41800;BME280;27468;47.460;19.034;2023-04-20T05:49:39;100298.44;;;10.43;74.89
41800;BME280;27468;47.460;19.034;2023-04-20T05:52:05;100363.41;;;10.89;74.73
41800;BME280;27468;47.460;19.034;2023-04-20T05:54:30;100320.75;;;10.69;74.48
41800;BME280;27468;47.460;19.034;2023-04-20T05:56:56;100372.88;;;10.98;74.79
41800;BME280;27468;47.460;19.034;2023-04-20T05:59:25;100344.66;;;11.01;74.59
41800;BME280;27468;47.460;19.034;2023-04-20T06:01:51;100365.53;;;11.12;72.47
41800;BME280;27468;47.460;19.034;2023-04-20T06:04:16;100362.78;;;11.16;71.32
41800;BME280;27468;47.460;19.034;2023-04-20T06:06:41;100317.63;;;10.91;70.12
41800;BME280;27468;47.460;19.034;2023-04-20T06:09:07;100354.78;;;11.19;69.22
41800;BME280;27468;47.460;19.034;2023-04-20T06:11:32;100334.56;;;11.20;69.02
41800;BME280;27468;47.460;19.034;2023-04-20T06:13:58;100362.22;;;11.41;67.69
41800;BME280;27468;47.460;19.034;2023-04-20T06:16:23;100324.66;;;11.30;67.23
41800;BME280;27468;47.460;19.034;2023-04-20T06:18:49;100368.59;;;11.68;67.07
41800;BME280;27468;47.460;19.034;2023-04-20T06:21:14;100331.81;;;11.60;66.74
41800;BME280;27468;47.460;19.034;2023-04-20T06:23:41;100374.22;;;11.91;65.44
41800;BME280;27468;47.460;19.034;2023-04-20T06:26:08;100346.88;;;11.92;64.68
41800;BME280;27468;47.460;19.034;2023-04-20T06:28:35;100366.13;;;11.97;64.62
41800;BME280;27468;47.460;19.034;2023-04-20T06:31:01;100373.81;;;12.06;64.47
41800;BME280;27468;47.460;19.034;2023-04-20T06:33:27;100367.41;;;12.15;63.91
41800;BME280;27468;47.460;19.034;2023-04-20T06:35:52;100365.75;;;12.12;63.52
41800;BME280;27468;47.460;19.034;2023-04-20T06:38:19;100368.06;;;12.23;63.16
41800;BME280;27468;47.460;19.034;2023-04-20T06:40:45;100356.84;;;12.15;63.58
41800;BME280;27468;47.460;19.034;2023-04-20T06:43:10;100374.88;;;12.32;63.23
41800;BME280;27468;47.460;19.034;2023-04-20T06:45:36;100361.50;;;12.38;62.21
41800;BME280;27468;47.460;19.034;2023-04-20T06:48:01;100367.41;;;12.47;61.67
41800;BME280;27468;47.460;19.034;2023-04-20T06:50:27;100372.44;;;12.56;61.27
41800;BME280;27468;47.460;19.034;2023-04-20T06:52:52;100333.91;;;12.48;61.45
41800;BME280;27468;47.460;19.034;2023-04-20T06:55:18;100320.00;;;12.41;60.78
41800;BME280;27468;47.460;19.034;2023-04-20T06:57:43;100370.91;;;12.79;60.24
41800;BME280;27468;47.460;19.034;2023-04-20T07:00:10;100366.53;;;12.78;60.34
41800;BME280;27468;47.460;19.034;2023-04-20T07:02:46;100366.94;;;12.94;59.85
41800;BME280;27468;47.460;19.034;2023-04-20T07:05:12;100365.94;;;12.98;59.28
41800;BME280;27468;47.460;19.034;2023-04-20T07:07:38;100367.53;;;13.03;58.27
41800;BME280;27468;47.460;19.034;2023-04-20T07:10:07;100355.13;;;13.05;58.08
41800;BME280;27468;47.460;19.034;2023-04-20T07:12:37;100377.75;;;13.17;57.55
41800;BME280;27468;47.460;19.034;2023-04-20T07:15:03;100338.44;;;13.03;56.95
41800;BME280;27468;47.460;19.034;2023-04-20T07:17:29;100342.41;;;13.18;56.59
41800;BME280;27468;47.460;19.034;2023-04-20T07:19:55;100369.84;;;13.43;56.25
41800;BME280;27468;47.460;19.034;2023-04-20T07:22:21;100368.88;;;13.46;55.83
41800;BME280;27468;47.460;19.034;2023-04-20T07:24:46;100369.59;;;13.51;55.60
41800;BME280;27468;47.460;19.034;2023-04-20T07:27:12;100362.53;;;13.51;55.21
41800;BME280;27468;47.460;19.034;2023-04-20T07:29:37;100373.78;;;13.58;54.47
41800;BME280;27468;47.460;19.034;2023-04-20T07:32:03;100378.03;;;13.64;53.92
41800;BME280;27468;47.460;19.034;2023-04-20T07:34:28;100375.13;;;13.71;53.22
41800;BME280;27468;47.460;19.034;2023-04-20T07:36:54;100327.53;;;13.42;53.27
41800;BME280;27468;47.460;19.034;2023-04-20T07:39:20;100358.31;;;13.72;52.67
41800;BME280;27468;47.460;19.034;2023-04-20T07:41:45;100371.59;;;13.97;51.23
41800;BME280;27468;47.460;19.034;2023-04-20T07:44:14;100328.06;;;13.79;50.15
41800;BME280;27468;47.460;19.034;2023-04-20T07:46:39;100375.81;;;14.03;51.00
41800;BME280;27468;47.460;19.034;2023-04-20T07:49:05;100379.19;;;14.08;50.87
41800;BME280;27468;47.460;19.034;2023-04-20T07:51:30;100380.84;;;14.10;51.04
41800;BME280;27468;47.460;19.034;2023-04-20T07:53:56;100356.03;;;14.13;50.09
41800;BME280;27468;47.460;19.034;2023-04-20T07:56:22;100369.13;;;14.17;50.05
41800;BME280;27468;47.460;19.034;2023-04-20T07:58:47;100357.09;;;14.07;49.52
41800;BME280;27468;47.460;19.034;2023-04-20T08:01:12;100372.31;;;14.27;49.58
41800;BME280;27468;47.460;19.034;2023-04-20T08:03:38;100358.81;;;14.35;48.95
41800;BME280;27468;47.460;19.034;2023-04-20T08:06:03;100376.22;;;14.43;49.26
41800;BME280;27468;47.460;19.034;2023-04-20T08:08:29;100356.19;;;14.33;49.56
41800;BME280;27468;47.460;19.034;2023-04-20T08:10:57;100373.09;;;14.56;50.08
41800;BME280;27468;47.460;19.034;2023-04-20T08:13:23;100365.66;;;14.65;50.10
41800;BME280;27468;47.460;19.034;2023-04-20T08:15:49;100362.84;;;14.70;48.94
41800;BME280;27468;47.460;19.034;2023-04-20T08:18:14;100365.59;;;14.67;48.35
41800;BME280;27468;47.460;19.034;2023-04-20T08:20:40;100366.88;;;14.80;47.73
41800;BME280;27468;47.460;19.034;2023-04-20T08:23:05;100322.84;;;14.51;47.36
41800;BME280;27468;47.460;19.034;2023-04-20T08:25:31;100366.03;;;14.79;48.04
41800;BME280;27468;47.460;19.034;2023-04-20T08:27:56;100377.81;;;14.96;47.75
41800;BME280;27468;47.460;19.034;2023-04-20T08:30:22;100370.06;;;14.90;47.39
41800;BME280;27468;47.460;19.034;2023-04-20T08:32:47;100366.94;;;15.02;47.07
41800;BME280;27468;47.460;19.034;2023-04-20T08:35:13;100360.69;;;15.03;47.87
41800;BME280;27468;47.460;19.034;2023-04-20T08:37:38;100365.47;;;15.16;47.51
41800;BME280;27468;47.460;19.034;2023-04-20T08:40:04;100362.63;;;15.21;47.88
41800;BME280;27468;47.460;19.034;2023-04-20T08:42:30;100349.66;;;15.13;47.42
41800;BME280;27468;47.460;19.034;2023-04-20T08:44:56;100356.09;;;15.30;47.57
41800;BME280;27468;47.460;19.034;2023-04-20T08:47:22;100306.41;;;15.10;46.76
41800;BME280;27468;47.460;19.034;2023-04-20T08:49:51;100309.94;;;15.10;46.64
41800;BME280;27468;47.460;19.034;2023-04-20T08:52:17;100347.59;;;15.43;46.44
41800;BME280;27468;47.460;19.034;2023-04-20T08:54:43;100327.38;;;15.39;46.49
41800;BME280;27468;47.460;19.034;2023-04-20T08:57:08;100297.78;;;15.27;46.43
41800;BME280;27468;47.460;19.034;2023-04-20T08:59:35;100357.53;;;15.60;46.00
41800;BME280;27468;47.460;19.034;2023-04-20T09:02:11;100361.69;;;15.67;45.98
41800;BME280;27468;47.460;19.034;2023-04-20T09:04:38;100343.41;;;15.60;46.22
41800;BME280;27468;47.460;19.034;2023-04-20T09:07:04;100343.13;;;15.66;44.97
41800;BME280;27468;47.460;19.034;2023-04-20T09:09:30;100347.88;;;15.79;44.09
41800;BME280;27468;47.460;19.034;2023-04-20T09:12:13;100360.59;;;15.93;44.28
41800;BME280;27468;47.460;19.034;2023-04-20T09:14:43;100355.16;;;15.96;44.26
41800;BME280;27468;47.460;19.034;2023-04-20T09:17:09;100350.09;;;15.90;43.79
41800;BME280;27468;47.460;19.034;2023-04-20T09:19:38;100319.25;;;15.86;43.28
41800;BME280;27468;47.460;19.034;2023-04-20T09:22:04;100297.31;;;15.81;42.04
41800;BME280;27468;47.460;19.034;2023-04-20T09:24:35;100334.44;;;16.04;41.90
41800;BME280;27468;47.460;19.034;2023-04-20T09:27:13;100317.94;;;15.96;41.18
41800;BME280;27468;47.460;19.034;2023-04-20T09:29:39;100344.38;;;16.19;42.35
41800;BME280;27468;47.460;19.034;2023-04-20T09:32:05;100345.31;;;16.18;42.45
41800;BME280;27468;47.460;19.034;2023-04-20T09:34:30;100326.00;;;16.15;41.77
41800;BME280;27468;47.460;19.034;2023-04-20T09:37:08;100319.03;;;16.31;41.09
41800;BME280;27468;47.460;19.034;2023-04-20T09:39:33;100311.91;;;16.32;40.69
41800;BME280;27468;47.460;19.034;2023-04-20T09:42:03;100353.75;;;16.48;41.33
41800;BME280;27468;47.460;19.034;2023-04-20T09:44:29;100302.69;;;16.20;41.59
41800;BME280;27468;47.460;19.034;2023-04-20T09:46:54;100340.72;;;16.42;40.79
41800;BME280;27468;47.460;19.034;2023-04-20T09:49:21;100347.22;;;16.56;40.85
41800;BME280;27468;47.460;19.034;2023-04-20T09:51:46;100332.97;;;16.57;41.35
41800;BME280;27468;47.460;19.034;2023-04-20T09:54:13;100294.47;;;16.45;41.49
41800;BME280;27468;47.460;19.034;2023-04-20T09:56:39;100342.66;;;16.78;41.18
41800;BME280;27468;47.460;19.034;2023-04-20T09:59:05;100338.06;;;16.81;41.33
41800;BME280;27468;47.460;19.034;2023-04-20T10:01:32;100329.06;;;16.84;40.06
41800;BME280;27468;47.460;19.034;2023-04-20T10:04:02;100330.72;;;16.87;39.95
41800;BME280;27468;47.460;19.034;2023-04-20T10:06:28;100336.22;;;17.02;40.22
41800;BME280;27468;47.460;19.034;2023-04-20T10:08:55;100285.53;;;16.85;40.17
41800;BME280;27468;47.460;19.034;2023-04-20T10:11:31;100336.78;;;17.09;40.33
41800;BME280;27468;47.460;19.034;2023-04-20T10:13:58;100294.88;;;16.94;40.71
41800;BME280;27468;47.460;19.034;2023-04-20T10:16:25;100332.09;;;17.14;40.29
41800;BME280;27468;47.460;19.034;2023-04-20T10:19:00;100326.19;;;17.26;39.41
41800;BME280;27468;47.460;19.034;2023-04-20T10:21:28;100317.41;;;17.24;39.86
41800;BME280;27468;47.460;19.034;2023-04-20T10:23:54;100316.72;;;17.38;39.25
41800;BME280;27468;47.460;19.034;2023-04-20T10:26:21;100324.13;;;17.50;38.84
41800;BME280;27468;47.460;19.034;2023-04-20T10:28:48;100310.22;;;17.43;39.15
41800;BME280;27468;47.460;19.034;2023-04-20T10:31:14;100304.75;;;17.46;39.58
41800;BME280;27468;47.460;19.034;2023-04-20T10:33:54;100260.28;;;17.30;39.94
41800;BME280;27468;47.460;19.034;2023-04-20T10:36:25;100308.75;;;17.74;39.43
41800;BME280;27468;47.460;19.034;2023-04-20T10:38:51;100309.44;;;17.77;39.75
41800;BME280;27468;47.460;19.034;2023-04-20T10:41:17;100293.44;;;17.77;40.58
41800;BME280;27468;47.460;19.034;2023-04-20T10:43:43;100302.84;;;18.02;39.47
41800;BME280;27468;47.460;19.034;2023-04-20T10:48:56;100283.63;;;17.95;39.63
41800;BME280;27468;47.460;19.034;2023-04-20T10:51:22;100301.97;;;18.01;39.47
41800;BME280;27468;47.460;19.034;2023-04-20T10:54:05;100284.09;;;18.03;38.86
41800;BME280;27468;47.460;19.034;2023-04-20T10:56:37;100254.44;;;17.92;37.52
41800;BME280;27468;47.460;19.034;2023-04-20T10:59:07;100296.94;;;18.12;38.45
41800;BME280;27468;47.460;19.034;2023-04-20T11:01:32;100256.78;;;17.98;38.74
41800;BME280;27468;47.460;19.034;2023-04-20T11:03:58;100246.28;;;17.95;38.70
41800;BME280;27468;47.460;19.034;2023-04-20T11:06:24;100259.28;;;18.01;38.67
41800;BME280;27468;47.460;19.034;2023-04-20T11:08:50;100279.72;;;18.35;37.47
41800;BME280;27468;47.460;19.034;2023-04-20T11:11:25;100289.22;;;18.41;37.08
41800;BME280;27468;47.460;19.034;2023-04-20T11:14:10;100251.81;;;18.25;37.38
41800;BME280;27468;47.460;19.034;2023-04-20T11:16:36;100261.47;;;18.28;37.35
41800;BME280;27468;47.460;19.034;2023-04-20T11:19:02;100262.16;;;18.31;37.59
41800;BME280;27468;47.460;19.034;2023-04-20T11:21:39;100284.31;;;18.49;36.99
41800;BME280;27468;47.460;19.034;2023-04-20T11:24:19;100270.31;;;18.61;36.81
41800;BME280;27468;47.460;19.034;2023-04-20T11:26:45;100277.41;;;18.78;36.18
41800;BME280;27468;47.460;19.034;2023-04-20T11:29:26;100267.06;;;18.72;37.13
41800;BME280;27468;47.460;19.034;2023-04-20T11:31:51;100247.34;;;18.74;36.61
41800;BME280;27468;47.460;19.034;2023-04-20T11:34:17;100270.97;;;18.82;36.11
41800;BME280;27468;47.460;19.034;2023-04-20T11:36:42;100239.06;;;18.79;35.61
41800;BME280;27468;47.460;19.034;2023-04-20T11:39:08;100213.81;;;18.69;35.75
41800;BME280;27468;47.460;19.034;2023-04-20T11:41:34;100264.84;;;18.96;36.00
41800;BME280;27468;47.460;19.034;2023-04-20T11:44:04;100196.59;;;18.74;35.87
41800;BME280;27468;47.460;19.034;2023-04-20T11:46:33;100203.59;;;18.77;36.06
41800;BME280;27468;47.460;19.034;2023-04-20T11:48:58;100234.25;;;19.01;35.18
41800;BME280;27468;47.460;19.034;2023-04-20T11:51:25;100264.56;;;19.16;34.50
41800;BME280;27468;47.460;19.034;2023-04-20T11:53:51;100264.13;;;19.08;33.86
41800;BME280;27468;47.460;19.034;2023-04-20T11:56:17;100248.88;;;19.10;34.80
41800;BME280;27468;47.460;19.034;2023-04-20T11:58:42;100235.50;;;19.10;34.38
41800;BME280;27468;47.460;19.034;2023-04-20T12:01:07;100239.47;;;19.19;34.04
41800;BME280;27468;47.460;19.034;2023-04-20T12:03:33;100253.84;;;19.32;34.13
41800;BME280;27468;47.460;19.034;2023-04-20T12:05:58;100244.97;;;19.31;33.71
41800;BME280;27468;47.460;19.034;2023-04-20T12:08:24;100230.75;;;19.31;33.53
41800;BME280;27468;47.460;19.034;2023-04-20T12:10:49;100243.84;;;19.51;32.82
41800;BME280;27468;47.460;19.034;2023-04-20T12:13:15;100244.19;;;19.61;33.73
41800;BME280;27468;47.460;19.034;2023-04-20T12:15:40;100193.56;;;19.42;33.04
41800;BME280;27468;47.460;19.034;2023-04-20T12:18:06;100232.53;;;19.76;33.06
41800;BME280;27468;47.460;19.034;2023-04-20T12:20:31;100233.00;;;19.68;32.54
41800;BME280;27468;47.460;19.034;2023-04-20T12:22:57;100240.94;;;19.70;32.44
41800;BME280;27468;47.460;19.034;2023-04-20T12:25:22;100231.19;;;19.69;32.12
41800;BME280;27468;47.460;19.034;2023-04-20T12:27:48;100201.13;;;19.50;31.39
41800;BME280;27468;47.460;19.034;2023-04-20T12:30:13;100226.31;;;19.61;32.18
41800;BME280;27468;47.460;19.034;2023-04-20T12:32:40;100237.19;;;19.58;31.04
41800;BME280;27468;47.460;19.034;2023-04-20T12:35:06;100212.53;;;19.53;31.05
41800;BME280;27468;47.460;19.034;2023-04-20T12:37:32;100210.00;;;19.50;32.17
41800;BME280;27468;47.460;19.034;2023-04-20T12:39:58;100220.47;;;19.55;31.14
41800;BME280;27468;47.460;19.034;2023-04-20T12:42:23;100221.34;;;19.69;30.67
41800;BME280;27468;47.460;19.034;2023-04-20T12:44:51;100224.06;;;19.84;30.50